createdAt,value
2022-08-30T00:01:28.479Z,66.10
2022-08-30T00:03:55.627Z,65.70
2022-08-30T00:06:23.158Z,65.80
2022-08-30T00:08:53.131Z,66.10
2022-08-30T00:11:27.950Z,66.00
2022-08-30T00:13:58.178Z,66.40
2022-08-30T00:16:26.403Z,65.90
2022-08-30T00:18:53.829Z,66.50
2022-08-30T00:21:21.047Z,67.60
2022-08-30T00:23:47.765Z,66.40
2022-08-30T00:26:19.515Z,66.90
2022-08-30T00:28:48.576Z,67.30
2022-08-30T00:31:15.687Z,67.20
2022-08-30T00:33:43.055Z,67.80
2022-08-30T00:36:09.879Z,67.70
2022-08-30T00:38:38.892Z,67.80
2022-08-30T00:41:07.880Z,67.70
2022-08-30T00:43:38.613Z,68.10
2022-08-30T00:46:08.282Z,68.00
2022-08-30T00:48:38.869Z,68.60
2022-08-30T00:51:10.043Z,68.60
2022-08-30T00:53:42.340Z,69.40
2022-08-30T00:56:10.114Z,68.70
2022-08-30T00:58:42.742Z,68.50
2022-08-30T01:01:10.446Z,69.00
2022-08-30T01:03:38.704Z,69.90
2022-08-30T01:06:07.606Z,69.90
2022-08-30T01:08:36.930Z,69.50
2022-08-30T01:11:04.852Z,70.60
2022-08-30T01:13:34.235Z,70.90
2022-08-30T01:16:04.610Z,70.70
2022-08-30T01:18:32.077Z,72.30
2022-08-30T01:21:15.318Z,72.30
2022-08-30T01:23:44.140Z,72.50
2022-08-30T01:26:12.963Z,72.90
2022-08-30T01:28:44.139Z,73.20
2022-08-30T01:31:11.050Z,71.60
2022-08-30T01:33:38.440Z,71.80
2022-08-30T01:36:11.392Z,72.20
2022-08-30T01:38:56.821Z,73.20
2022-08-30T01:41:37.148Z,73.10
2022-08-30T01:44:08.615Z,73.30
2022-08-30T01:46:43.205Z,72.60
2022-08-30T01:49:14.899Z,73.20
2022-08-30T01:51:44.194Z,73.00
2022-08-30T01:54:11.266Z,74.20
2022-08-30T01:56:38.156Z,73.10
2022-08-30T01:59:05.616Z,72.20
2022-08-30T02:01:37.281Z,72.30
2022-08-30T02:04:04.542Z,73.30
2022-08-30T02:06:31.600Z,73.10
2022-08-30T02:08:59.330Z,72.70
2022-08-30T02:11:26.772Z,73.70
2022-08-30T02:13:53.554Z,72.80
2022-08-30T02:16:23.148Z,73.20
2022-08-30T02:18:51.866Z,73.20
2022-08-30T02:21:21.202Z,73.40
2022-08-30T02:23:47.940Z,73.60
2022-08-30T02:26:15.527Z,73.50
2022-08-30T02:28:49.657Z,73.70
2022-08-30T02:31:19.486Z,73.60
2022-08-30T02:33:50.134Z,74.10
2022-08-30T02:36:17.862Z,73.30
2022-08-30T02:38:47.300Z,73.70
2022-08-30T02:41:14.470Z,73.50
2022-08-30T02:43:41.315Z,73.50
2022-08-30T02:46:08.119Z,73.10
2022-08-30T02:48:34.939Z,73.70
2022-08-30T02:51:11.534Z,73.50
2022-08-30T02:53:42.010Z,73.90
2022-08-30T02:56:09.427Z,73.30
2022-08-30T02:58:38.947Z,73.50
2022-08-30T03:01:06.206Z,73.60
2022-08-30T03:03:33.734Z,74.30
2022-08-30T03:06:00.701Z,74.40
2022-08-30T03:08:27.402Z,74.10
2022-08-30T03:10:54.101Z,74.20
2022-08-30T03:13:21.126Z,75.00
2022-08-30T03:15:50.322Z,74.90
2022-08-30T03:18:19.306Z,74.60
2022-08-30T03:20:54.267Z,75.10
2022-08-30T03:23:22.527Z,74.70
2022-08-30T03:25:49.399Z,75.20
2022-08-30T03:28:18.233Z,75.30
2022-08-30T03:30:44.973Z,75.80
2022-08-30T03:33:11.650Z,74.90
2022-08-30T03:35:40.949Z,75.10
2022-08-30T03:38:09.804Z,75.60
2022-08-30T03:40:37.091Z,75.90
2022-08-30T03:43:04.950Z,76.10
2022-08-30T03:45:34.822Z,76.00
2022-08-30T03:48:04.057Z,76.00
2022-08-30T03:50:31.449Z,75.90
2022-08-30T03:53:01.368Z,76.40
2022-08-30T03:55:29.032Z,76.80
2022-08-30T03:57:56.299Z,76.10
2022-08-30T04:00:25.400Z,76.10
2022-08-30T04:02:52.145Z,76.30
2022-08-30T04:05:20.183Z,76.10
2022-08-30T04:07:46.999Z,76.20
2022-08-30T04:10:13.830Z,76.30
2022-08-30T04:12:40.606Z,76.40
2022-08-30T04:15:09.473Z,76.50
2022-08-30T04:17:36.328Z,76.20
2022-08-30T04:20:03.429Z,76.50
2022-08-30T04:22:30.096Z,76.40
2022-08-30T04:24:59.520Z,77.00
2022-08-30T04:27:26.290Z,76.60
2022-08-30T04:29:54.147Z,77.00
2022-08-30T04:32:23.018Z,76.90
2022-08-30T04:34:49.716Z,77.10
2022-08-30T04:37:16.780Z,76.80
2022-08-30T04:39:43.568Z,76.60
2022-08-30T04:42:11.430Z,76.50
2022-08-30T04:44:40.564Z,76.90
2022-08-30T04:47:10.036Z,76.80
2022-08-30T04:49:39.749Z,76.60
2022-08-30T04:52:06.574Z,76.70
2022-08-30T04:54:33.262Z,76.60
2022-08-30T04:57:00.886Z,76.40
2022-08-30T04:59:29.200Z,76.70
2022-08-30T05:01:55.918Z,76.60
2022-08-30T05:04:22.739Z,77.20
2022-08-30T05:06:49.529Z,77.50
2022-08-30T05:09:16.865Z,77.50
2022-08-30T05:11:44.053Z,77.80
2022-08-30T05:14:11.076Z,77.80
2022-08-30T05:16:38.039Z,77.90
2022-08-30T05:19:04.861Z,77.50
2022-08-30T05:21:33.827Z,77.50
2022-08-30T05:24:01.145Z,77.50
2022-08-30T05:26:31.380Z,77.60
2022-08-30T05:28:58.346Z,77.20
2022-08-30T05:31:32.295Z,77.30
2022-08-30T05:34:02.390Z,77.60
2022-08-30T05:36:31.095Z,77.10
2022-08-30T05:39:01.299Z,77.20
2022-08-30T05:41:28.260Z,76.50
2022-08-30T05:43:59.767Z,76.80
2022-08-30T05:46:29.698Z,76.90
2022-08-30T05:48:57.219Z,76.60
2022-08-30T05:51:28.734Z,76.80
2022-08-30T05:53:56.924Z,76.60
2022-08-30T05:56:33.434Z,76.30
2022-08-30T05:59:01.529Z,76.30
2022-08-30T06:01:37.907Z,76.40
2022-08-30T06:04:09.270Z,76.40
2022-08-30T06:06:40.084Z,76.50
2022-08-30T06:09:10.673Z,76.90
2022-08-30T06:11:37.827Z,76.60
2022-08-30T06:14:05.391Z,76.40
2022-08-30T06:16:32.747Z,76.30
2022-08-30T06:19:00.199Z,76.70
2022-08-30T06:21:32.408Z,76.50
2022-08-30T06:23:59.797Z,76.30
2022-08-30T06:26:28.403Z,76.10
2022-08-30T06:28:56.551Z,76.00
2022-08-30T06:31:26.280Z,76.00
2022-08-30T06:33:53.751Z,75.70
2022-08-30T06:36:23.015Z,75.40
2022-08-30T06:38:52.221Z,75.40
2022-08-30T06:41:23.836Z,76.20
2022-08-30T06:43:50.850Z,75.10
2022-08-30T06:46:24.967Z,74.60
2022-08-30T06:48:52.714Z,75.40
2022-08-30T06:51:29.661Z,74.90
2022-08-30T06:53:59.503Z,74.80
2022-08-30T06:56:27.611Z,74.60
2022-08-30T06:58:54.838Z,74.50
2022-08-30T07:01:24.856Z,74.50
2022-08-30T07:03:52.307Z,74.40
2022-08-30T07:06:19.797Z,74.20
2022-08-30T07:08:47.496Z,74.20
2022-08-30T07:11:17.280Z,74.30
2022-08-30T07:13:45.591Z,73.80
2022-08-30T07:16:14.827Z,73.30
2022-08-30T07:18:54.983Z,73.80
2022-08-30T07:21:32.124Z,74.00
2022-08-30T07:23:59.845Z,74.10
2022-08-30T07:26:37.226Z,72.50
2022-08-30T07:29:04.402Z,72.50
2022-08-30T07:31:34.404Z,71.60
2022-08-30T07:34:01.089Z,71.20
2022-08-30T07:36:27.991Z,70.50
2022-08-30T07:38:55.035Z,70.90
2022-08-30T07:41:28.523Z,70.80
2022-08-30T07:43:58.618Z,71.20
2022-08-30T07:46:25.871Z,71.00
2022-08-30T07:48:54.373Z,70.80
2022-08-30T07:51:23.960Z,71.00
2022-08-30T07:53:51.418Z,70.00
2022-08-30T07:56:18.648Z,69.50
2022-08-30T07:58:45.369Z,69.60
2022-08-30T08:01:15.510Z,69.50
2022-08-30T08:03:43.373Z,70.00
2022-08-30T08:06:12.831Z,69.30
2022-08-30T08:08:40.484Z,68.70
2022-08-30T08:11:16.094Z,68.30
2022-08-30T08:13:53.156Z,67.00
2022-08-30T08:16:25.001Z,66.70
2022-08-30T08:18:53.034Z,66.50
2022-08-30T08:21:20.906Z,65.80
2022-08-30T08:23:47.706Z,65.60
2022-08-30T08:26:14.504Z,66.30
2022-08-30T08:28:42.087Z,65.30
2022-08-30T08:31:21.494Z,65.90
2022-08-30T08:33:50.899Z,66.90
2022-08-30T08:36:18.511Z,65.80
2022-08-30T08:38:45.588Z,66.00
2022-08-30T08:41:29.630Z,65.20
2022-08-30T08:43:56.561Z,66.30
2022-08-30T08:46:33.884Z,65.40
2022-08-30T08:49:04.644Z,65.50
2022-08-30T08:51:53.484Z,64.30
2022-08-30T08:54:38.598Z,64.10
2022-08-30T08:57:05.717Z,65.00
2022-08-30T08:59:32.749Z,64.30
2022-08-30T09:02:05.218Z,64.40
2022-08-30T09:04:37.671Z,64.10
2022-08-30T09:07:19.526Z,64.20
2022-08-30T09:09:46.399Z,63.50
2022-08-30T09:12:15.396Z,63.70
2022-08-30T09:14:47.958Z,63.20
2022-08-30T09:17:17.335Z,63.50
2022-08-30T09:19:58.709Z,62.90
2022-08-30T09:22:30.906Z,63.10
2022-08-30T09:25:22.099Z,62.40
2022-08-30T09:27:52.815Z,60.90
2022-08-30T09:30:29.355Z,61.00
2022-08-30T09:32:58.975Z,60.60
2022-08-30T09:35:40.792Z,59.70
2022-08-30T09:38:13.010Z,59.90
2022-08-30T09:40:40.286Z,60.40
2022-08-30T09:43:34.667Z,60.40
2022-08-30T09:46:10.809Z,60.50
2022-08-30T09:48:47.372Z,60.20
2022-08-30T09:51:42.459Z,59.70
2022-08-30T09:54:26.474Z,59.60
2022-08-30T09:57:34.449Z,59.20
2022-08-30T10:00:23.004Z,59.30
2022-08-30T10:03:30.238Z,58.90
2022-08-30T10:06:24.243Z,58.70
2022-08-30T10:09:00.187Z,58.80
2022-08-30T10:11:43.883Z,59.00
2022-08-30T10:14:22.714Z,58.20
2022-08-30T10:16:55.012Z,57.90
2022-08-30T10:20:17.135Z,58.30
2022-08-30T10:22:58.656Z,57.80
2022-08-30T10:25:37.651Z,57.20
2022-08-30T10:28:14.504Z,56.80
2022-08-30T10:30:47.612Z,56.70
2022-08-30T10:33:25.483Z,56.80
2022-08-30T10:36:02.584Z,55.40
2022-08-30T10:38:31.438Z,55.30
2022-08-30T10:41:31.393Z,54.30
2022-08-30T10:44:01.267Z,53.90
2022-08-30T10:46:51.828Z,53.90
2022-08-30T10:49:28.335Z,54.10
2022-08-30T10:52:18.616Z,53.40
2022-08-30T10:54:54.593Z,53.60
2022-08-30T10:57:21.397Z,53.60
2022-08-30T11:00:24.382Z,54.50
2022-08-30T11:03:15.877Z,53.30
2022-08-30T11:06:14.155Z,53.20
2022-08-30T11:08:52.640Z,53.20
2022-08-30T11:11:28.252Z,52.80
2022-08-30T11:14:05.856Z,52.20
2022-08-30T11:16:42.314Z,52.70
2022-08-30T11:19:40.007Z,52.70
2022-08-30T11:22:21.289Z,51.80
2022-08-30T11:25:09.778Z,52.00
2022-08-30T11:27:41.509Z,51.90
2022-08-30T11:30:29.353Z,52.30
2022-08-30T11:33:25.146Z,52.10
2022-08-30T11:35:53.671Z,51.50
2022-08-30T11:38:26.437Z,51.50
2022-08-30T11:41:01.638Z,51.60
2022-08-30T11:43:36.895Z,51.60
2022-08-30T11:46:24.252Z,52.60
2022-08-30T11:49:19.523Z,51.40
2022-08-30T11:52:28.051Z,52.50
2022-08-30T11:55:10.262Z,52.50
2022-08-30T11:57:49.723Z,52.50
2022-08-30T12:00:36.694Z,52.70
2022-08-30T12:03:31.046Z,52.40
2022-08-30T12:06:01.474Z,52.10
2022-08-30T12:08:37.314Z,52.10
2022-08-30T12:11:12.073Z,51.80
2022-08-30T12:13:44.926Z,51.40
2022-08-30T12:16:57.891Z,51.50
2022-08-30T12:19:26.597Z,50.70
2022-08-30T12:21:58.294Z,50.70
2022-08-30T12:24:40.185Z,50.70
2022-08-30T12:27:32.672Z,50.50
2022-08-30T12:30:08.259Z,50.50
2022-08-30T12:32:50.797Z,49.80
2022-08-30T12:35:25.918Z,49.60
2022-08-30T12:38:02.032Z,50.20
2022-08-30T12:40:31.631Z,50.70
2022-08-30T12:43:04.654Z,50.30
2022-08-30T12:45:44.070Z,50.40
2022-08-30T12:48:15.584Z,50.40
2022-08-30T12:50:51.930Z,50.00
2022-08-30T12:53:41.972Z,50.80
2022-08-30T12:56:12.821Z,50.10
2022-08-30T12:58:43.383Z,50.20
2022-08-30T13:01:35.680Z,49.60
2022-08-30T13:04:26.823Z,49.40
2022-08-30T13:06:59.133Z,49.80
2022-08-30T13:09:41.293Z,49.60
2022-08-30T13:12:23.138Z,49.10
2022-08-30T13:14:50.205Z,49.40
2022-08-30T13:17:19.313Z,49.20
2022-08-30T13:19:57.991Z,48.50
2022-08-30T13:22:39.468Z,49.00
2022-08-30T13:25:08.351Z,49.00
2022-08-30T13:27:38.941Z,49.50
2022-08-30T13:30:16.031Z,49.00
2022-08-30T13:32:43.538Z,49.00
2022-08-30T13:35:13.690Z,49.10
2022-08-30T13:37:49.858Z,49.10
2022-08-30T13:40:21.276Z,48.80
2022-08-30T13:42:48.352Z,49.00
2022-08-30T13:48:06.037Z,49.20
2022-08-30T13:50:35.447Z,48.50
2022-08-30T13:53:04.494Z,48.80
2022-08-30T13:55:31.440Z,48.60
2022-08-30T13:58:00.529Z,47.80
2022-08-30T14:00:27.605Z,47.80
2022-08-30T14:02:59.965Z,48.50
2022-08-30T14:11:12.831Z,48.70
2022-08-30T14:14:14.634Z,48.70
2022-08-30T14:16:28.617Z,49.10
2022-08-30T14:18:56.422Z,49.10
2022-08-30T14:21:24.795Z,49.40
2022-08-30T14:23:52.961Z,49.30
2022-08-30T14:26:33.828Z,49.30
2022-08-30T14:29:06.048Z,49.50
2022-08-30T14:31:39.455Z,49.30
2022-08-30T14:34:07.945Z,49.10
2022-08-30T14:36:36.586Z,49.60
2022-08-30T14:39:08.662Z,49.20
2022-08-30T14:41:43.426Z,48.80
2022-08-30T14:44:11.489Z,49.00
2022-08-30T14:46:38.314Z,49.00
2022-08-30T14:49:05.905Z,49.10
2022-08-30T14:51:32.659Z,48.80
2022-08-30T14:54:02.833Z,48.70
2022-08-30T14:56:32.524Z,48.40
2022-08-30T14:59:02.576Z,48.70
2022-08-30T15:01:31.184Z,48.50
2022-08-30T15:03:58.931Z,47.70
2022-08-30T15:06:27.449Z,48.20
2022-08-30T15:08:57.496Z,48.40
2022-08-30T15:11:29.564Z,48.30
2022-08-30T15:13:56.463Z,48.10
2022-08-30T15:16:33.433Z,47.90
2022-08-30T15:19:00.647Z,47.60
2022-08-30T15:21:48.428Z,48.10
2022-08-30T15:24:29.307Z,48.30
2022-08-30T15:26:56.797Z,48.20
2022-08-30T15:29:25.727Z,48.50
2022-08-30T15:31:53.191Z,48.20
2022-08-30T15:34:26.237Z,47.80
2022-08-30T15:36:55.323Z,47.80
2022-08-30T15:39:22.073Z,47.60
2022-08-30T15:41:58.647Z,47.60
2022-08-30T15:44:27.670Z,48.10
2022-08-30T15:46:56.976Z,48.20
2022-08-30T15:49:24.400Z,48.40
2022-08-30T15:51:54.010Z,48.40
2022-08-30T15:54:22.715Z,49.50
2022-08-30T15:56:58.936Z,49.10
2022-08-30T15:59:32.730Z,49.50
2022-08-30T16:01:59.691Z,48.70
2022-08-30T16:04:29.098Z,48.90
2022-08-30T16:06:55.868Z,48.80
2022-08-30T16:09:26.541Z,49.20
2022-08-30T16:11:59.124Z,48.90
2022-08-30T16:14:25.900Z,48.40
2022-08-30T16:16:57.908Z,48.80
2022-08-30T16:19:25.334Z,48.50
2022-08-30T16:21:52.281Z,48.70
2022-08-30T16:24:22.764Z,47.90
2022-08-30T16:26:50.248Z,47.30
2022-08-30T16:29:16.979Z,46.50
2022-08-30T16:31:47.434Z,46.50
2022-08-30T16:34:16.594Z,46.90
2022-08-30T16:36:43.628Z,46.30
2022-08-30T16:39:13.611Z,46.30
2022-08-30T16:41:41.389Z,46.60
2022-08-30T16:44:08.958Z,46.80
2022-08-30T16:46:43.325Z,46.80
2022-08-30T16:49:19.395Z,47.70
2022-08-30T16:51:46.356Z,48.10
2022-08-30T16:54:13.930Z,48.10
2022-08-30T16:56:40.603Z,48.30
2022-08-30T16:59:11.150Z,48.60
2022-08-30T17:01:39.075Z,48.70
2022-08-30T17:04:08.050Z,49.10
2022-08-30T17:06:35.732Z,49.00
2022-08-30T17:09:03.715Z,49.50
2022-08-30T17:11:32.051Z,50.00
2022-08-30T17:13:58.791Z,50.20
2022-08-30T17:16:30.270Z,50.50
2022-08-30T17:19:01.409Z,50.80
2022-08-30T17:21:33.236Z,50.80
2022-08-30T17:24:02.353Z,51.00
2022-08-30T17:26:34.635Z,51.40
2022-08-30T17:29:02.815Z,51.70
2022-08-30T17:31:30.840Z,51.90
2022-08-30T17:34:03.488Z,52.20
2022-08-30T17:36:36.670Z,52.60
2022-08-30T17:39:11.450Z,52.50
2022-08-30T17:41:43.377Z,52.50
2022-08-30T17:44:16.447Z,52.60
2022-08-30T17:46:43.446Z,52.80
2022-08-30T17:49:11.594Z,52.90
2022-08-30T17:51:41.846Z,53.30
2022-08-30T17:54:09.845Z,53.50
2022-08-30T17:56:36.551Z,54.20
2022-08-30T17:59:08.097Z,54.00
2022-08-30T18:01:37.028Z,54.30
2022-08-30T18:04:05.901Z,54.50
2022-08-30T18:06:33.334Z,54.60
2022-08-30T18:09:03.987Z,55.20
2022-08-30T18:11:35.928Z,55.40
2022-08-30T18:14:03.719Z,55.50
2022-08-30T18:16:33.272Z,55.70
2022-08-30T18:19:03.588Z,55.90
2022-08-30T18:21:30.594Z,55.90
2022-08-30T18:23:57.440Z,56.10
2022-08-30T18:26:24.787Z,56.10
2022-08-30T18:28:52.141Z,56.80
2022-08-30T18:31:18.843Z,57.00
2022-08-30T18:33:49.306Z,56.80
2022-08-30T18:36:19.181Z,57.20
2022-08-30T18:38:46.047Z,57.20
2022-08-30T18:41:14.458Z,56.50
2022-08-30T18:43:44.969Z,56.30
2022-08-30T18:46:14.075Z,56.40
2022-08-30T18:48:41.362Z,56.30
2022-08-30T18:51:17.119Z,55.80
2022-08-30T18:53:44.578Z,55.70
2022-08-30T18:56:16.644Z,55.90
2022-08-30T18:58:44.952Z,56.10
2022-08-30T19:01:12.916Z,55.80
2022-08-30T19:03:40.865Z,55.70
2022-08-30T19:06:11.620Z,55.50
2022-08-30T19:08:40.198Z,55.30
2022-08-30T19:11:10.207Z,55.30
2022-08-30T19:13:39.893Z,55.00
2022-08-30T19:16:07.881Z,54.80
2022-08-30T19:18:38.889Z,55.20
2022-08-30T19:21:06.033Z,55.40
2022-08-30T19:23:42.480Z,55.30
2022-08-30T19:26:10.940Z,55.30
2022-08-30T19:28:38.250Z,55.50
2022-08-30T19:31:06.473Z,55.40
2022-08-30T19:33:33.918Z,55.20
2022-08-30T19:36:05.367Z,55.40
2022-08-30T19:38:35.423Z,55.60
2022-08-30T19:41:05.728Z,55.70
2022-08-30T19:43:32.547Z,55.60
2022-08-30T19:46:00.269Z,55.70
2022-08-30T19:48:32.809Z,55.60
2022-08-30T19:51:06.573Z,55.50
2022-08-30T19:53:34.817Z,55.30
2022-08-30T19:56:01.639Z,55.20
2022-08-30T19:58:30.293Z,55.10
2022-08-30T20:01:01.145Z,55.10
2022-08-30T20:03:40.330Z,55.10
2022-08-30T20:06:08.180Z,55.30
2022-08-30T20:08:36.627Z,55.40
2022-08-30T20:11:07.092Z,55.30
2022-08-30T20:13:35.990Z,55.40
2022-08-30T20:16:03.136Z,55.20
2022-08-30T20:18:29.904Z,55.60
2022-08-30T20:20:56.957Z,55.90
2022-08-30T20:23:25.428Z,56.00
2022-08-30T20:25:54.349Z,55.90
2022-08-30T20:28:21.335Z,56.30
2022-08-30T20:30:51.397Z,56.40
2022-08-30T20:33:19.884Z,56.10
2022-08-30T20:35:50.032Z,56.20
2022-08-30T20:38:21.393Z,56.20
2022-08-30T20:40:50.424Z,56.10
2022-08-30T20:43:18.947Z,56.40
2022-08-30T20:45:46.255Z,55.80
2022-08-30T20:48:13.804Z,55.90
2022-08-30T20:50:41.925Z,56.00
2022-08-30T20:53:09.114Z,55.90
2022-08-30T20:55:39.919Z,55.60
2022-08-30T20:58:06.606Z,55.80
2022-08-30T21:00:35.974Z,55.90
2022-08-30T21:03:03.497Z,55.60
2022-08-30T21:05:44.395Z,55.70
2022-08-30T21:08:11.248Z,55.90
2022-08-30T21:10:37.944Z,56.00
2022-08-30T21:13:06.786Z,56.00
2022-08-30T21:15:37.763Z,55.70
2022-08-30T21:18:05.003Z,55.70
2022-08-30T21:20:32.676Z,55.90
2022-08-30T21:22:59.321Z,56.00
2022-08-30T21:25:26.088Z,56.20
2022-08-30T21:27:53.738Z,56.30
2022-08-30T21:30:20.561Z,56.30
2022-08-30T21:32:47.327Z,56.10
2022-08-30T21:35:32.501Z,56.30
2022-08-30T21:38:04.243Z,56.30
2022-08-30T21:40:30.972Z,56.10
2022-08-30T21:42:58.956Z,56.30
2022-08-30T21:45:27.254Z,56.30
2022-08-30T21:47:53.946Z,56.30
2022-08-30T21:50:20.607Z,56.40
2022-08-30T21:52:47.308Z,56.40
2022-08-30T21:55:13.982Z,56.50
2022-08-30T21:57:40.647Z,56.50
2022-08-30T22:00:11.437Z,57.20
2022-08-30T22:02:40.786Z,57.00
2022-08-30T22:05:07.792Z,56.80
2022-08-30T22:07:37.233Z,56.90
2022-08-30T22:10:10.403Z,57.00
2022-08-30T22:12:37.523Z,57.00
2022-08-30T22:15:05.682Z,56.90
2022-08-30T22:17:32.619Z,57.20
2022-08-30T22:19:59.294Z,57.30
2022-08-30T22:22:26.035Z,57.40
2022-08-30T22:24:54.938Z,57.50
2022-08-30T22:27:21.785Z,57.40
2022-08-30T22:29:50.648Z,57.30
2022-08-30T22:32:19.979Z,57.30
2022-08-30T22:34:50.081Z,57.40
2022-08-30T22:37:16.970Z,57.40
2022-08-30T22:39:43.675Z,57.40
2022-08-30T22:42:10.443Z,58.20
2022-08-30T22:44:37.187Z,57.60
2022-08-30T22:47:04.000Z,57.60
2022-08-30T22:49:33.209Z,57.70
2022-08-30T22:51:59.930Z,57.70
2022-08-30T22:54:26.624Z,57.90
2022-08-30T22:56:53.383Z,58.40
2022-08-30T22:59:20.048Z,58.20
2022-08-30T23:01:49.217Z,58.00
2022-08-30T23:04:18.499Z,58.50
2022-08-30T23:06:49.828Z,58.70
2022-08-30T23:09:17.457Z,58.70
2022-08-30T23:11:44.216Z,58.60
2022-08-30T23:14:10.891Z,59.00
2022-08-30T23:16:37.800Z,58.70
2022-08-30T23:19:07.210Z,59.50
2022-08-30T23:21:33.946Z,58.90
2022-08-30T23:24:19.487Z,59.00
2022-08-30T23:27:05.481Z,59.60
2022-08-30T23:29:53.464Z,60.00
2022-08-30T23:32:39.461Z,60.90
2022-08-30T23:35:30.534Z,61.80
2022-08-30T23:38:21.164Z,62.50
2022-08-30T23:41:06.556Z,64.90
2022-08-30T23:43:52.160Z,69.90
2022-08-30T23:46:40.010Z,77.10
2022-08-30T23:49:27.523Z,81.80
2022-08-30T23:52:15.211Z,85.00
2022-08-30T23:55:00.384Z,88.20
2022-08-30T23:57:46.092Z,90.40
